sensor_id;sensor_type;location;lat;lon;timestamp;P1;durP1;ratioP1;P2;durP2;ratioP2
40058;SDS011;25763;49.972;8.568;2024-01-30T00:00:04;86.28;;;81.85;;
40058;SDS011;25763;49.972;8.568;2024-01-30T00:02:30;81.93;;;77.82;;
40058;SDS011;25763;49.972;8.568;2024-01-30T00:04:56;85.47;;;81.07;;
40058;SDS011;25763;49.972;8.568;2024-01-30T00:07:22;79.22;;;75.22;;
40058;SDS011;25763;49.972;8.568;2024-01-30T00:09:47;78.88;;;74.82;;
40058;SDS011;25763;49.972;8.568;2024-01-30T00:12:13;80.53;;;76.35;;
40058;SDS011;25763;49.972;8.568;2024-01-30T00:14:38;79.18;;;74.50;;
40058;SDS011;25763;49.972;8.568;2024-01-30T00:17:08;75.10;;;71.25;;
40058;SDS011;25763;49.972;8.568;2024-01-30T00:19:33;75.13;;;71.07;;
40058;SDS011;25763;49.972;8.568;2024-01-30T00:21:58;73.60;;;69.20;;
40058;SDS011;25763;49.972;8.568;2024-01-30T00:24:24;75.15;;;71.22;;
40058;SDS011;25763;49.972;8.568;2024-01-30T00:26:49;75.90;;;72.10;;
40058;SDS011;25763;49.972;8.568;2024-01-30T00:29:14;76.90;;;73.00;;
40058;SDS011;25763;49.972;8.568;2024-01-30T00:31:44;83.07;;;78.13;;
40058;SDS011;25763;49.972;8.568;2024-01-30T00:34:10;80.35;;;75.93;;
40058;SDS011;25763;49.972;8.568;2024-01-30T00:36:35;77.47;;;73.18;;
40058;SDS011;25763;49.972;8.568;2024-01-30T00:39:01;76.15;;;72.30;;
40058;SDS011;25763;49.972;8.568;2024-01-30T00:41:31;82.85;;;78.50;;
40058;SDS011;25763;49.972;8.568;2024-01-30T00:43:56;83.22;;;79.03;;
40058;SDS011;25763;49.972;8.568;2024-01-30T00:46:21;84.80;;;80.47;;
40058;SDS011;25763;49.972;8.568;2024-01-30T00:48:47;86.82;;;82.50;;
40058;SDS011;25763;49.972;8.568;2024-01-30T00:51:12;84.10;;;79.75;;
40058;SDS011;25763;49.972;8.568;2024-01-30T00:53:37;87.47;;;82.97;;
40058;SDS011;25763;49.972;8.568;2024-01-30T00:56:03;86.15;;;81.78;;
40058;SDS011;25763;49.972;8.568;2024-01-30T00:58:28;85.97;;;81.47;;
40058;SDS011;25763;49.972;8.568;2024-01-30T01:00:53;88.13;;;83.45;;
40058;SDS011;25763;49.972;8.568;2024-01-30T01:03:19;87.22;;;82.68;;
40058;SDS011;25763;49.972;8.568;2024-01-30T01:05:44;83.85;;;79.70;;
40058;SDS011;25763;49.972;8.568;2024-01-30T01:08:10;82.10;;;77.65;;
40058;SDS011;25763;49.972;8.568;2024-01-30T01:10:35;77.93;;;73.85;;
40058;SDS011;25763;49.972;8.568;2024-01-30T01:13:00;77.10;;;73.25;;
40058;SDS011;25763;49.972;8.568;2024-01-30T01:15:25;68.88;;;65.35;;
40058;SDS011;25763;49.972;8.568;2024-01-30T01:17:51;64.28;;;60.83;;
40058;SDS011;25763;49.972;8.568;2024-01-30T01:20:16;66.22;;;62.72;;
40058;SDS011;25763;49.972;8.568;2024-01-30T01:22:41;69.97;;;66.32;;
40058;SDS011;25763;49.972;8.568;2024-01-30T01:25:07;63.20;;;59.85;;
40058;SDS011;25763;49.972;8.568;2024-01-30T01:27:33;63.95;;;60.35;;
40058;SDS011;25763;49.972;8.568;2024-01-30T01:29:59;57.95;;;54.65;;
40058;SDS011;25763;49.972;8.568;2024-01-30T01:32:25;55.20;;;52.30;;
40058;SDS011;25763;49.972;8.568;2024-01-30T01:34:51;59.40;;;55.45;;
40058;SDS011;25763;49.972;8.568;2024-01-30T01:37:16;57.75;;;54.58;;
40058;SDS011;25763;49.972;8.568;2024-01-30T01:39:41;55.90;;;52.72;;
40058;SDS011;25763;49.972;8.568;2024-01-30T01:42:06;59.50;;;56.22;;
40058;SDS011;25763;49.972;8.568;2024-01-30T01:44:32;57.83;;;54.22;;
40058;SDS011;25763;49.972;8.568;2024-01-30T01:46:57;66.68;;;62.78;;
40058;SDS011;25763;49.972;8.568;2024-01-30T01:49:24;67.03;;;63.42;;
40058;SDS011;25763;49.972;8.568;2024-01-30T01:51:51;62.95;;;59.50;;
40058;SDS011;25763;49.972;8.568;2024-01-30T01:54:21;68.40;;;64.72;;
40058;SDS011;25763;49.972;8.568;2024-01-30T01:56:47;70.95;;;67.32;;
40058;SDS011;25763;49.972;8.568;2024-01-30T01:59:13;71.30;;;67.25;;
40058;SDS011;25763;49.972;8.568;2024-01-30T02:01:39;72.88;;;68.82;;
40058;SDS011;25763;49.972;8.568;2024-01-30T02:04:08;75.55;;;71.55;;
40058;SDS011;25763;49.972;8.568;2024-01-30T02:06:36;70.38;;;66.75;;
40058;SDS011;25763;49.972;8.568;2024-01-30T02:09:02;67.68;;;64.13;;
40058;SDS011;25763;49.972;8.568;2024-01-30T02:11:29;65.20;;;61.75;;
40058;SDS011;25763;49.972;8.568;2024-01-30T02:13:55;59.22;;;56.08;;
40058;SDS011;25763;49.972;8.568;2024-01-30T02:16:20;58.35;;;54.97;;
40058;SDS011;25763;49.972;8.568;2024-01-30T02:18:46;56.97;;;54.00;;
40058;SDS011;25763;49.972;8.568;2024-01-30T02:21:14;57.92;;;54.78;;
40058;SDS011;25763;49.972;8.568;2024-01-30T02:23:40;59.35;;;56.33;;
40058;SDS011;25763;49.972;8.568;2024-01-30T02:26:07;64.55;;;61.15;;
40058;SDS011;25763;49.972;8.568;2024-01-30T02:28:32;70.82;;;67.22;;
40058;SDS011;25763;49.972;8.568;2024-01-30T02:30:57;67.47;;;63.95;;
40058;SDS011;25763;49.972;8.568;2024-01-30T02:33:22;65.72;;;62.28;;
40058;SDS011;25763;49.972;8.568;2024-01-30T02:35:48;69.57;;;66.07;;
40058;SDS011;25763;49.972;8.568;2024-01-30T02:38:14;74.75;;;70.78;;
40058;SDS011;25763;49.972;8.568;2024-01-30T02:40:40;73.90;;;69.57;;
40058;SDS011;25763;49.972;8.568;2024-01-30T02:43:06;79.38;;;74.95;;
40058;SDS011;25763;49.972;8.568;2024-01-30T02:45:31;70.00;;;66.50;;
40058;SDS011;25763;49.972;8.568;2024-01-30T02:47:56;74.00;;;70.20;;
40058;SDS011;25763;49.972;8.568;2024-01-30T02:50:22;80.22;;;76.22;;
40058;SDS011;25763;49.972;8.568;2024-01-30T02:52:47;77.90;;;73.90;;
40058;SDS011;25763;49.972;8.568;2024-01-30T02:55:13;77.45;;;73.35;;
40058;SDS011;25763;49.972;8.568;2024-01-30T02:57:38;76.68;;;72.78;;
40058;SDS011;25763;49.972;8.568;2024-01-30T03:00:04;78.60;;;74.53;;
40058;SDS011;25763;49.972;8.568;2024-01-30T03:02:31;75.85;;;71.93;;
40058;SDS011;25763;49.972;8.568;2024-01-30T03:04:57;73.57;;;69.80;;
40058;SDS011;25763;49.972;8.568;2024-01-30T03:07:23;75.47;;;71.45;;
40058;SDS011;25763;49.972;8.568;2024-01-30T03:09:49;76.20;;;72.30;;
40058;SDS011;25763;49.972;8.568;2024-01-30T03:12:14;77.60;;;73.60;;
40058;SDS011;25763;49.972;8.568;2024-01-30T03:14:39;79.07;;;75.00;;
40058;SDS011;25763;49.972;8.568;2024-01-30T03:17:05;76.38;;;72.53;;
40058;SDS011;25763;49.972;8.568;2024-01-30T03:19:30;78.50;;;74.53;;
40058;SDS011;25763;49.972;8.568;2024-01-30T03:21:55;79.10;;;75.13;;
40058;SDS011;25763;49.972;8.568;2024-01-30T03:24:21;82.00;;;77.88;;
40058;SDS011;25763;49.972;8.568;2024-01-30T03:26:46;78.97;;;75.03;;
40058;SDS011;25763;49.972;8.568;2024-01-30T03:29:11;76.88;;;73.00;;
40058;SDS011;25763;49.972;8.568;2024-01-30T03:31:37;78.50;;;74.50;;
40058;SDS011;25763;49.972;8.568;2024-01-30T03:34:02;74.22;;;70.47;;
40058;SDS011;25763;49.972;8.568;2024-01-30T03:36:28;74.43;;;70.63;;
40058;SDS011;25763;49.972;8.568;2024-01-30T03:38:53;76.60;;;72.50;;
40058;SDS011;25763;49.972;8.568;2024-01-30T03:41:18;77.38;;;73.32;;
40058;SDS011;25763;49.972;8.568;2024-01-30T03:43:44;76.93;;;72.93;;
40058;SDS011;25763;49.972;8.568;2024-01-30T03:46:11;74.35;;;70.40;;
40058;SDS011;25763;49.972;8.568;2024-01-30T03:48:37;79.03;;;74.95;;
40058;SDS011;25763;49.972;8.568;2024-01-30T03:51:02;79.63;;;75.60;;
40058;SDS011;25763;49.972;8.568;2024-01-30T03:53:28;78.10;;;74.00;;
40058;SDS011;25763;49.972;8.568;2024-01-30T03:55:53;77.50;;;73.50;;
40058;SDS011;25763;49.972;8.568;2024-01-30T03:58:19;79.10;;;74.88;;
40058;SDS011;25763;49.972;8.568;2024-01-30T04:00:44;77.35;;;73.30;;
40058;SDS011;25763;49.972;8.568;2024-01-30T04:03:09;77.18;;;73.15;;
40058;SDS011;25763;49.972;8.568;2024-01-30T04:05:35;80.57;;;76.40;;
40058;SDS011;25763;49.972;8.568;2024-01-30T04:08:00;80.90;;;76.80;;
40058;SDS011;25763;49.972;8.568;2024-01-30T04:10:25;75.72;;;71.60;;
40058;SDS011;25763;49.972;8.568;2024-01-30T04:12:51;78.20;;;74.30;;
40058;SDS011;25763;49.972;8.568;2024-01-30T04:15:17;74.28;;;70.43;;
40058;SDS011;25763;49.972;8.568;2024-01-30T04:17:43;72.10;;;68.43;;
40058;SDS011;25763;49.972;8.568;2024-01-30T04:20:13;73.47;;;69.78;;
40058;SDS011;25763;49.972;8.568;2024-01-30T04:22:39;67.88;;;64.40;;
40058;SDS011;25763;49.972;8.568;2024-01-30T04:25:04;70.90;;;66.68;;
40058;SDS011;25763;49.972;8.568;2024-01-30T04:27:30;71.63;;;67.90;;
40058;SDS011;25763;49.972;8.568;2024-01-30T04:29:55;68.93;;;65.05;;
40058;SDS011;25763;49.972;8.568;2024-01-30T04:32:20;70.47;;;66.93;;
40058;SDS011;25763;49.972;8.568;2024-01-30T04:34:46;67.60;;;64.07;;
40058;SDS011;25763;49.972;8.568;2024-01-30T04:37:11;62.55;;;59.35;;
40058;SDS011;25763;49.972;8.568;2024-01-30T04:39:36;65.32;;;61.90;;
40058;SDS011;25763;49.972;8.568;2024-01-30T04:42:02;65.13;;;61.60;;
40058;SDS011;25763;49.972;8.568;2024-01-30T04:44:27;63.40;;;60.13;;
40058;SDS011;25763;49.972;8.568;2024-01-30T04:46:53;64.40;;;61.10;;
40058;SDS011;25763;49.972;8.568;2024-01-30T04:49:18;61.60;;;58.42;;
40058;SDS011;25763;49.972;8.568;2024-01-30T04:51:43;63.63;;;60.30;;
40058;SDS011;25763;49.972;8.568;2024-01-30T04:54:09;61.15;;;57.80;;
40058;SDS011;25763;49.972;8.568;2024-01-30T04:56:34;64.15;;;60.85;;
40058;SDS011;25763;49.972;8.568;2024-01-30T04:59:01;66.68;;;63.15;;
40058;SDS011;25763;49.972;8.568;2024-01-30T05:01:27;65.47;;;62.08;;
40058;SDS011;25763;49.972;8.568;2024-01-30T05:03:53;72.75;;;68.78;;
40058;SDS011;25763;49.972;8.568;2024-01-30T05:06:24;71.43;;;67.65;;
40058;SDS011;25763;49.972;8.568;2024-01-30T05:08:53;67.95;;;64.47;;
40058;SDS011;25763;49.972;8.568;2024-01-30T05:11:18;69.00;;;65.50;;
40058;SDS011;25763;49.972;8.568;2024-01-30T05:13:44;68.88;;;65.32;;
40058;SDS011;25763;49.972;8.568;2024-01-30T05:16:09;72.75;;;69.07;;
40058;SDS011;25763;49.972;8.568;2024-01-30T05:18:34;69.57;;;65.80;;
40058;SDS011;25763;49.972;8.568;2024-01-30T05:21:00;66.45;;;63.08;;
40058;SDS011;25763;49.972;8.568;2024-01-30T05:23:25;67.55;;;64.13;;
40058;SDS011;25763;49.972;8.568;2024-01-30T05:25:51;68.72;;;64.85;;
40058;SDS011;25763;49.972;8.568;2024-01-30T05:28:16;66.72;;;63.30;;
40058;SDS011;25763;49.972;8.568;2024-01-30T05:30:41;66.93;;;63.38;;
40058;SDS011;25763;49.972;8.568;2024-01-30T05:33:07;70.15;;;66.32;;
40058;SDS011;25763;49.972;8.568;2024-01-30T05:35:32;69.10;;;65.50;;
40058;SDS011;25763;49.972;8.568;2024-01-30T05:37:57;68.43;;;64.95;;
40058;SDS011;25763;49.972;8.568;2024-01-30T05:40:23;67.30;;;63.92;;
40058;SDS011;25763;49.972;8.568;2024-01-30T05:42:48;71.18;;;67.45;;
40058;SDS011;25763;49.972;8.568;2024-01-30T05:45:13;71.38;;;67.70;;
40058;SDS011;25763;49.972;8.568;2024-01-30T05:47:39;68.78;;;65.13;;
40058;SDS011;25763;49.972;8.568;2024-01-30T05:50:04;65.88;;;62.42;;
40058;SDS011;25763;49.972;8.568;2024-01-30T05:52:30;68.10;;;64.60;;
40058;SDS011;25763;49.972;8.568;2024-01-30T05:54:55;70.70;;;67.00;;
40058;SDS011;25763;49.972;8.568;2024-01-30T05:57:21;65.13;;;61.80;;
40058;SDS011;25763;49.972;8.568;2024-01-30T05:59:46;66.75;;;63.28;;
40058;SDS011;25763;49.972;8.568;2024-01-30T06:02:13;65.18;;;61.88;;
40058;SDS011;25763;49.972;8.568;2024-01-30T06:04:38;67.93;;;64.43;;
40058;SDS011;25763;49.972;8.568;2024-01-30T06:07:03;65.68;;;62.22;;
40058;SDS011;25763;49.972;8.568;2024-01-30T06:09:31;68.97;;;65.53;;
40058;SDS011;25763;49.972;8.568;2024-01-30T06:11:56;67.90;;;64.30;;
40058;SDS011;25763;49.972;8.568;2024-01-30T06:14:22;65.93;;;62.58;;
40058;SDS011;25763;49.972;8.568;2024-01-30T06:16:47;63.30;;;59.95;;
40058;SDS011;25763;49.972;8.568;2024-01-30T06:19:12;74.10;;;70.32;;
40058;SDS011;25763;49.972;8.568;2024-01-30T06:21:38;67.10;;;63.72;;
40058;SDS011;25763;49.972;8.568;2024-01-30T06:24:03;62.80;;;59.50;;
40058;SDS011;25763;49.972;8.568;2024-01-30T06:26:29;61.95;;;58.70;;
40058;SDS011;25763;49.972;8.568;2024-01-30T06:28:55;62.55;;;59.35;;
40058;SDS011;25763;49.972;8.568;2024-01-30T06:31:20;62.08;;;58.88;;
40058;SDS011;25763;49.972;8.568;2024-01-30T06:33:48;68.97;;;65.38;;
40058;SDS011;25763;49.972;8.568;2024-01-30T06:36:15;61.72;;;58.53;;
40058;SDS011;25763;49.972;8.568;2024-01-30T06:38:40;64.38;;;61.08;;
40058;SDS011;25763;49.972;8.568;2024-01-30T06:41:06;66.38;;;62.88;;
40058;SDS011;25763;49.972;8.568;2024-01-30T06:43:31;64.30;;;60.70;;
40058;SDS011;25763;49.972;8.568;2024-01-30T06:45:56;63.17;;;59.90;;
40058;SDS011;25763;49.972;8.568;2024-01-30T06:48:22;64.55;;;61.17;;
40058;SDS011;25763;49.972;8.568;2024-01-30T06:50:47;69.28;;;65.75;;
40058;SDS011;25763;49.972;8.568;2024-01-30T06:53:14;66.65;;;63.22;;
40058;SDS011;25763;49.972;8.568;2024-01-30T06:55:39;67.68;;;64.18;;
40058;SDS011;25763;49.972;8.568;2024-01-30T06:58:05;66.72;;;63.03;;
40058;SDS011;25763;49.972;8.568;2024-01-30T07:00:30;66.80;;;62.95;;
40058;SDS011;25763;49.972;8.568;2024-01-30T07:02:56;65.45;;;61.85;;
40058;SDS011;25763;49.972;8.568;2024-01-30T07:05:21;66.40;;;61.85;;
40058;SDS011;25763;49.972;8.568;2024-01-30T07:07:47;65.85;;;62.47;;
40058;SDS011;25763;49.972;8.568;2024-01-30T07:10:12;62.80;;;59.58;;
40058;SDS011;25763;49.972;8.568;2024-01-30T07:12:38;64.85;;;61.08;;
40058;SDS011;25763;49.972;8.568;2024-01-30T07:15:03;62.28;;;59.00;;
40058;SDS011;25763;49.972;8.568;2024-01-30T07:17:29;70.05;;;66.20;;
40058;SDS011;25763;49.972;8.568;2024-01-30T07:19:54;63.28;;;60.00;;
40058;SDS011;25763;49.972;8.568;2024-01-30T07:22:20;66.45;;;63.03;;
40058;SDS011;25763;49.972;8.568;2024-01-30T07:24:45;61.15;;;57.83;;
40058;SDS011;25763;49.972;8.568;2024-01-30T07:27:13;58.25;;;55.25;;
40058;SDS011;25763;49.972;8.568;2024-01-30T07:29:39;60.78;;;57.65;;
40058;SDS011;25763;49.972;8.568;2024-01-30T07:32:05;62.58;;;59.35;;
40058;SDS011;25763;49.972;8.568;2024-01-30T07:34:30;65.45;;;62.15;;
40058;SDS011;25763;49.972;8.568;2024-01-30T07:36:55;65.80;;;62.42;;
40058;SDS011;25763;49.972;8.568;2024-01-30T07:39:21;61.60;;;58.40;;
40058;SDS011;25763;49.972;8.568;2024-01-30T07:41:46;62.63;;;59.28;;
40058;SDS011;25763;49.972;8.568;2024-01-30T07:44:12;62.72;;;59.53;;
40058;SDS011;25763;49.972;8.568;2024-01-30T07:46:37;64.95;;;61.45;;
40058;SDS011;25763;49.972;8.568;2024-01-30T07:49:02;62.90;;;59.42;;
40058;SDS011;25763;49.972;8.568;2024-01-30T07:51:28;66.75;;;63.40;;
40058;SDS011;25763;49.972;8.568;2024-01-30T07:53:54;69.47;;;65.65;;
40058;SDS011;25763;49.972;8.568;2024-01-30T07:56:20;67.45;;;64.05;;
40058;SDS011;25763;49.972;8.568;2024-01-30T07:58:45;67.47;;;63.97;;
40058;SDS011;25763;49.972;8.568;2024-01-30T08:01:10;65.38;;;62.08;;
40058;SDS011;25763;49.972;8.568;2024-01-30T08:03:36;66.97;;;63.55;;
40058;SDS011;25763;49.972;8.568;2024-01-30T08:06:02;64.85;;;61.45;;
40058;SDS011;25763;49.972;8.568;2024-01-30T08:08:28;65.38;;;61.78;;
40058;SDS011;25763;49.972;8.568;2024-01-30T08:10:53;68.15;;;64.43;;
40058;SDS011;25763;49.972;8.568;2024-01-30T08:13:19;65.13;;;61.55;;
40058;SDS011;25763;49.972;8.568;2024-01-30T08:15:44;64.72;;;61.38;;
40058;SDS011;25763;49.972;8.568;2024-01-30T08:18:09;69.45;;;65.90;;
40058;SDS011;25763;49.972;8.568;2024-01-30T08:20:35;66.57;;;62.85;;
40058;SDS011;25763;49.972;8.568;2024-01-30T08:23:00;69.00;;;65.32;;
40058;SDS011;25763;49.972;8.568;2024-01-30T08:25:25;67.65;;;64.28;;
40058;SDS011;25763;49.972;8.568;2024-01-30T08:27:51;75.75;;;71.85;;
40058;SDS011;25763;49.972;8.568;2024-01-30T08:30:16;71.38;;;67.55;;
40058;SDS011;25763;49.972;8.568;2024-01-30T08:32:42;62.85;;;59.55;;
40058;SDS011;25763;49.972;8.568;2024-01-30T08:35:07;66.93;;;63.42;;
40058;SDS011;25763;49.972;8.568;2024-01-30T08:37:34;69.93;;;66.32;;
40058;SDS011;25763;49.972;8.568;2024-01-30T08:39:59;66.82;;;62.58;;
40058;SDS011;25763;49.972;8.568;2024-01-30T08:42:25;72.32;;;68.50;;
40058;SDS011;25763;49.972;8.568;2024-01-30T08:44:51;68.03;;;64.60;;
40058;SDS011;25763;49.972;8.568;2024-01-30T08:47:18;73.30;;;69.55;;
40058;SDS011;25763;49.972;8.568;2024-01-30T08:49:43;72.00;;;68.38;;
40058;SDS011;25763;49.972;8.568;2024-01-30T08:52:09;68.15;;;64.45;;
40058;SDS011;25763;49.972;8.568;2024-01-30T08:54:35;68.70;;;65.20;;
40058;SDS011;25763;49.972;8.568;2024-01-30T08:57:01;70.60;;;66.82;;
40058;SDS011;25763;49.972;8.568;2024-01-30T08:59:26;74.07;;;70.20;;
40058;SDS011;25763;49.972;8.568;2024-01-30T09:01:51;77.35;;;73.10;;
40058;SDS011;25763;49.972;8.568;2024-01-30T09:04:20;71.18;;;67.47;;
40058;SDS011;25763;49.972;8.568;2024-01-30T09:06:48;75.45;;;71.55;;
40058;SDS011;25763;49.972;8.568;2024-01-30T09:09:13;70.72;;;67.05;;
40058;SDS011;25763;49.972;8.568;2024-01-30T09:11:39;72.38;;;68.65;;
40058;SDS011;25763;49.972;8.568;2024-01-30T09:14:05;73.38;;;69.57;;
40058;SDS011;25763;49.972;8.568;2024-01-30T09:16:30;70.45;;;66.65;;
40058;SDS011;25763;49.972;8.568;2024-01-30T09:18:55;72.05;;;67.93;;
40058;SDS011;25763;49.972;8.568;2024-01-30T09:21:21;67.57;;;63.90;;
40058;SDS011;25763;49.972;8.568;2024-01-30T09:23:46;76.25;;;72.35;;
40058;SDS011;25763;49.972;8.568;2024-01-30T09:26:11;71.93;;;68.25;;
40058;SDS011;25763;49.972;8.568;2024-01-30T09:28:37;67.35;;;63.92;;
40058;SDS011;25763;49.972;8.568;2024-01-30T09:31:03;76.28;;;72.30;;
40058;SDS011;25763;49.972;8.568;2024-01-30T09:33:28;75.45;;;71.13;;
40058;SDS011;25763;49.972;8.568;2024-01-30T09:35:54;74.07;;;69.97;;
40058;SDS011;25763;49.972;8.568;2024-01-30T09:38:19;80.97;;;76.90;;
40058;SDS011;25763;49.972;8.568;2024-01-30T09:40:44;84.32;;;80.07;;
40058;SDS011;25763;49.972;8.568;2024-01-30T09:43:18;87.30;;;82.88;;
40058;SDS011;25763;49.972;8.568;2024-01-30T09:45:48;95.22;;;90.40;;
40058;SDS011;25763;49.972;8.568;2024-01-30T09:48:15;101.13;;;95.70;;
40058;SDS011;25763;49.972;8.568;2024-01-30T09:50:41;108.20;;;102.75;;
40058;SDS011;25763;49.972;8.568;2024-01-30T09:53:06;101.85;;;96.55;;
40058;SDS011;25763;49.972;8.568;2024-01-30T09:55:34;98.82;;;93.88;;
40058;SDS011;25763;49.972;8.568;2024-01-30T09:58:01;94.32;;;89.40;;
40058;SDS011;25763;49.972;8.568;2024-01-30T10:00:26;101.47;;;96.10;;
40058;SDS011;25763;49.972;8.568;2024-01-30T10:02:52;104.43;;;99.05;;
40058;SDS011;25763;49.972;8.568;2024-01-30T10:05:18;103.10;;;97.80;;
40058;SDS011;25763;49.972;8.568;2024-01-30T10:07:53;114.25;;;108.13;;
40058;SDS011;25763;49.972;8.568;2024-01-30T10:10:22;109.18;;;103.60;;
40058;SDS011;25763;49.972;8.568;2024-01-30T10:12:51;116.03;;;110.20;;
40058;SDS011;25763;49.972;8.568;2024-01-30T10:15:17;105.70;;;100.40;;
40058;SDS011;25763;49.972;8.568;2024-01-30T10:17:44;104.55;;;99.18;;
40058;SDS011;25763;49.972;8.568;2024-01-30T10:20:10;113.03;;;107.13;;
40058;SDS011;25763;49.972;8.568;2024-01-30T10:22:36;121.10;;;114.95;;
40058;SDS011;25763;49.972;8.568;2024-01-30T10:25:01;123.65;;;117.05;;
40058;SDS011;25763;49.972;8.568;2024-01-30T10:27:26;110.18;;;104.55;;
40058;SDS011;25763;49.972;8.568;2024-01-30T10:29:52;111.50;;;104.07;;
40058;SDS011;25763;49.972;8.568;2024-01-30T10:32:18;107.95;;;102.55;;
40058;SDS011;25763;49.972;8.568;2024-01-30T10:34:44;100.85;;;95.75;;
40058;SDS011;25763;49.972;8.568;2024-01-30T10:37:10;116.15;;;110.30;;
40058;SDS011;25763;49.972;8.568;2024-01-30T10:39:41;94.78;;;89.97;;
40058;SDS011;25763;49.972;8.568;2024-01-30T10:42:11;88.70;;;84.20;;
40058;SDS011;25763;49.972;8.568;2024-01-30T10:44:44;85.00;;;80.47;;
40058;SDS011;25763;49.972;8.568;2024-01-30T10:47:28;81.85;;;77.63;;
40058;SDS011;25763;49.972;8.568;2024-01-30T10:49:54;88.53;;;83.85;;
40058;SDS011;25763;49.972;8.568;2024-01-30T10:52:21;90.35;;;85.50;;
40058;SDS011;25763;49.972;8.568;2024-01-30T10:54:49;76.85;;;72.90;;
40058;SDS011;25763;49.972;8.568;2024-01-30T10:57:16;82.47;;;78.13;;
40058;SDS011;25763;49.972;8.568;2024-01-30T10:59:41;75.90;;;71.80;;
40058;SDS011;25763;49.972;8.568;2024-01-30T11:02:08;79.22;;;75.15;;
40058;SDS011;25763;49.972;8.568;2024-01-30T11:04:38;81.07;;;76.97;;
40058;SDS011;25763;49.972;8.568;2024-01-30T11:07:18;83.85;;;79.35;;
40058;SDS011;25763;49.972;8.568;2024-01-30T11:09:52;72.90;;;69.10;;
40058;SDS011;25763;49.972;8.568;2024-01-30T11:12:24;66.72;;;63.30;;
40058;SDS011;25763;49.972;8.568;2024-01-30T11:17:44;60.80;;;57.38;;
40058;SDS011;25763;49.972;8.568;2024-01-30T11:20:15;59.83;;;56.72;;
40058;SDS011;25763;49.972;8.568;2024-01-30T11:22:49;55.33;;;52.33;;
40058;SDS011;25763;49.972;8.568;2024-01-30T11:25:17;55.40;;;52.38;;
40058;SDS011;25763;49.972;8.568;2024-01-30T11:27:43;52.80;;;50.03;;
40058;SDS011;25763;49.972;8.568;2024-01-30T11:30:09;49.47;;;46.45;;
40058;SDS011;25763;49.972;8.568;2024-01-30T11:32:35;42.28;;;39.97;;
40058;SDS011;25763;49.972;8.568;2024-01-30T11:35:03;39.53;;;37.42;;
40058;SDS011;25763;49.972;8.568;2024-01-30T11:37:31;35.30;;;33.38;;
40058;SDS011;25763;49.972;8.568;2024-01-30T11:39:57;32.03;;;29.90;;
40058;SDS011;25763;49.972;8.568;2024-01-30T11:42:23;32.30;;;30.10;;
40058;SDS011;25763;49.972;8.568;2024-01-30T11:44:50;34.53;;;32.53;;
40058;SDS011;25763;49.972;8.568;2024-01-30T11:47:16;32.22;;;30.33;;
40058;SDS011;25763;49.972;8.568;2024-01-30T11:49:41;31.35;;;29.65;;
40058;SDS011;25763;49.972;8.568;2024-01-30T11:52:08;25.80;;;24.27;;
40058;SDS011;25763;49.972;8.568;2024-01-30T11:54:34;27.95;;;26.35;;
40058;SDS011;25763;49.972;8.568;2024-01-30T11:56:59;27.95;;;26.30;;
40058;SDS011;25763;49.972;8.568;2024-01-30T11:59:24;28.80;;;26.92;;
40058;SDS011;25763;49.972;8.568;2024-01-30T12:01:51;28.75;;;26.42;;
40058;SDS011;25763;49.972;8.568;2024-01-30T12:04:17;28.00;;;26.10;;
40058;SDS011;25763;49.972;8.568;2024-01-30T12:06:42;26.52;;;24.92;;
40058;SDS011;25763;49.972;8.568;2024-01-30T12:09:08;26.00;;;24.50;;
40058;SDS011;25763;49.972;8.568;2024-01-30T12:11:47;26.38;;;24.88;;
40058;SDS011;25763;49.972;8.568;2024-01-30T12:14:14;26.63;;;24.88;;
40058;SDS011;25763;49.972;8.568;2024-01-30T12:16:41;25.90;;;24.42;;
40058;SDS011;25763;49.972;8.568;2024-01-30T12:19:06;26.45;;;24.55;;
40058;SDS011;25763;49.972;8.568;2024-01-30T12:21:33;28.10;;;26.33;;
40058;SDS011;25763;49.972;8.568;2024-01-30T12:23:59;25.92;;;24.42;;
40058;SDS011;25763;49.972;8.568;2024-01-30T12:26:25;26.67;;;25.08;;
40058;SDS011;25763;49.972;8.568;2024-01-30T12:28:50;24.95;;;23.45;;
40058;SDS011;25763;49.972;8.568;2024-01-30T12:31:26;24.52;;;23.13;;
40058;SDS011;25763;49.972;8.568;2024-01-30T12:33:53;25.67;;;24.17;;
40058;SDS011;25763;49.972;8.568;2024-01-30T12:36:18;26.17;;;24.48;;
40058;SDS011;25763;49.972;8.568;2024-01-30T12:38:44;24.55;;;22.95;;
40058;SDS011;25763;49.972;8.568;2024-01-30T12:41:10;24.13;;;22.75;;
40058;SDS011;25763;49.972;8.568;2024-01-30T12:43:35;25.55;;;24.02;;
40058;SDS011;25763;49.972;8.568;2024-01-30T12:46:01;28.27;;;25.55;;
40058;SDS011;25763;49.972;8.568;2024-01-30T12:48:27;26.30;;;24.80;;
40058;SDS011;25763;49.972;8.568;2024-01-30T12:50:54;24.10;;;22.70;;
40058;SDS011;25763;49.972;8.568;2024-01-30T12:53:20;27.55;;;25.65;;
40058;SDS011;25763;49.972;8.568;2024-01-30T12:55:45;24.23;;;22.80;;
40058;SDS011;25763;49.972;8.568;2024-01-30T12:58:11;24.92;;;23.42;;
40058;SDS011;25763;49.972;8.568;2024-01-30T13:00:36;31.00;;;29.30;;
40058;SDS011;25763;49.972;8.568;2024-01-30T13:03:01;30.25;;;28.52;;
40058;SDS011;25763;49.972;8.568;2024-01-30T13:05:27;26.67;;;25.17;;
40058;SDS011;25763;49.972;8.568;2024-01-30T13:07:52;29.73;;;28.13;;
40058;SDS011;25763;49.972;8.568;2024-01-30T13:10:18;35.67;;;33.58;;
40058;SDS011;25763;49.972;8.568;2024-01-30T13:12:44;39.20;;;36.95;;
40058;SDS011;25763;49.972;8.568;2024-01-30T13:15:09;40.00;;;37.63;;
40058;SDS011;25763;49.972;8.568;2024-01-30T13:17:36;42.60;;;40.40;;
40058;SDS011;25763;49.972;8.568;2024-01-30T13:20:01;42.17;;;39.90;;
40058;SDS011;25763;49.972;8.568;2024-01-30T13:22:29;41.03;;;38.80;;
40058;SDS011;25763;49.972;8.568;2024-01-30T13:24:54;41.53;;;39.22;;
40058;SDS011;25763;49.972;8.568;2024-01-30T13:27:20;40.42;;;38.20;;
40058;SDS011;25763;49.972;8.568;2024-01-30T13:29:45;42.72;;;40.17;;
40058;SDS011;25763;49.972;8.568;2024-01-30T13:32:11;47.90;;;45.30;;
40058;SDS011;25763;49.972;8.568;2024-01-30T13:34:36;40.95;;;38.58;;
40058;SDS011;25763;49.972;8.568;2024-01-30T13:37:01;37.80;;;35.63;;
40058;SDS011;25763;49.972;8.568;2024-01-30T13:39:27;38.00;;;35.53;;
40058;SDS011;25763;49.972;8.568;2024-01-30T13:41:54;37.35;;;35.35;;
40058;SDS011;25763;49.972;8.568;2024-01-30T13:44:19;38.83;;;36.63;;
40058;SDS011;25763;49.972;8.568;2024-01-30T13:46:45;38.80;;;36.70;;
40058;SDS011;25763;49.972;8.568;2024-01-30T13:49:11;38.60;;;36.15;;
40058;SDS011;25763;49.972;8.568;2024-01-30T13:51:36;40.92;;;38.67;;
40058;SDS011;25763;49.972;8.568;2024-01-30T13:54:02;39.65;;;37.45;;
40058;SDS011;25763;49.972;8.568;2024-01-30T13:56:27;36.58;;;34.47;;
40058;SDS011;25763;49.972;8.568;2024-01-30T13:58:53;36.42;;;34.08;;
40058;SDS011;25763;49.972;8.568;2024-01-30T14:01:20;35.85;;;33.75;;
40058;SDS011;25763;49.972;8.568;2024-01-30T14:03:46;33.88;;;31.98;;
40058;SDS011;25763;49.972;8.568;2024-01-30T14:06:11;41.35;;;39.05;;
40058;SDS011;25763;49.972;8.568;2024-01-30T14:08:37;38.33;;;36.13;;
40058;SDS011;25763;49.972;8.568;2024-01-30T14:11:02;33.05;;;31.17;;
40058;SDS011;25763;49.972;8.568;2024-01-30T14:13:28;32.10;;;30.10;;
40058;SDS011;25763;49.972;8.568;2024-01-30T14:15:53;30.60;;;28.85;;